ID Time Temp Humidity Light PM2.5 PM10 Voltage Extra Firmware Position Fcnt TTN version Gateways Distance RSSI LSNR Radiosettings
2026-05-09 07:23:16 8.375°C 43.875% 3.27V v4 52.0839 / 5.13159 27629 ttn.v3 1.926km -108 -3 867.9MHz, SF9BW125, 4/5CR
- -117 -13.5 867.9MHz, SF9BW125, 4/5CR
2026-05-09 06:50:54 7.875°C 43.8125% 3.27V v4 52.0839 / 5.13159 27627 ttn.v3 - -113 -12.25 867.7MHz, SF9BW125, 4/5CR
2026-05-09 06:34:43 7.5625°C 43.8125% 3.27V v4 52.0839 / 5.13159 27626 ttn.v3 - -104 -6 868.3MHz, SF9BW125, 4/5CR
2026-05-09 06:02:22 7.3125°C 43.75% 3.27V v4 52.0839 / 5.13159 27624 ttn.v3 1.926km -95 -0.5 868.1MHz, SF9BW125, 4/5CR
- -124 -8.5 868.1MHz, SF9BW125, 4/5CR
2026-05-09 05:46:11 7.0625°C 43.75% 3.26V v4 52.0839 / 5.13159 27623 ttn.v3 1.926km -101 -5.25 867.3MHz, SF9BW125, 4/5CR
2026-05-09 05:30:00 7.0625°C 43.75% 3.27V v4 52.0839 / 5.13159 27622 ttn.v3 - -112 -11.25 868.5MHz, SF9BW125, 4/5CR
- -127 -13 868.5MHz, SF9BW125, 4/5CR
2026-05-09 05:13:49 7.25°C 43.75% 3.26V v4 52.0839 / 5.13159 27621 ttn.v3 - -118 -2.5 867.1MHz, SF9BW125, 4/5CR
1.926km -109 -3 867.1MHz, SF9BW125, 4/5CR
2026-05-09 04:57:39 7.4375°C 43.75% 3.27V v4 52.0839 / 5.13159 27620 ttn.v3 - -109 -7.75 868.3MHz, SF9BW125, 4/5CR
2026-05-09 04:41:28 7.5°C 43.75% 3.26V v4 52.0839 / 5.13159 27619 ttn.v3 - -115 -11.75 867.9MHz, SF9BW125, 4/5CR
2026-05-09 04:25:17 7.625°C 43.8125% 3.27V v4 52.0839 / 5.13159 27618 ttn.v3 - -104 3.25 868.1MHz, SF9BW125, 4/5CR
- -124 -8.75 868.1MHz, SF9BW125, 4/5CR
2026-05-09 04:09:06 7.8125°C 43.8125% 3.27V v4 52.0839 / 5.13159 27617 ttn.v3 1.926km -104 -5.25 867.7MHz, SF9BW125, 4/5CR
- -113 -9.25 867.7MHz, SF9BW125, 4/5CR
- -115 -12.5 867.7MHz, SF9BW125, 4/5CR
2026-05-09 03:52:55 7.9375°C 43.8125% 3.27V v4 52.0839 / 5.13159 27616 ttn.v3 - -106 -5 868.5MHz, SF9BW125, 4/5CR
2026-05-09 03:36:44 8.1875°C 43.875% 3.27V v4 52.0839 / 5.13159 27615 ttn.v3 - -113 -13.5 867.5MHz, SF9BW125, 4/5CR
2026-05-09 03:20:33 8.4375°C 43.875% 3.27V v4 52.0839 / 5.13159 27614 ttn.v3 - -104 -4.25 868.3MHz, SF9BW125, 4/5CR
2026-05-09 03:04:22 8.6875°C 50.875% 3.27V v4 52.0839 / 5.13159 27613 ttn.v3 - -114 -14.25 867.3MHz, SF9BW125, 4/5CR
2026-05-09 02:48:11 9°C 55.8125% 3.27V v4 52.0839 / 5.13159 27612 ttn.v3 - -107 -2 868.1MHz, SF9BW125, 4/5CR
2026-05-09 02:32:00 9.0625°C 58.25% 3.27V v4 52.0839 / 5.13159 27611 ttn.v3 1.926km -107 -3 867.1MHz, SF9BW125, 4/5CR
- -115 -9.75 867.1MHz, SF9BW125, 4/5CR
2026-05-09 02:15:48 9.625°C 68.5% 3.27V v4 52.0839 / 5.13159 27610 ttn.v3 - -107 -4.25 868.5MHz, SF9BW125, 4/5CR
2026-05-09 01:59:37 10.125°C 83.875% 3.27V v4 52.0839 / 5.13159 27609 ttn.v3 - -111 3.25 867.9MHz, SF9BW125, 4/5CR
1.926km -110 -0.75 867.9MHz, SF9BW125, 4/5CR
- -115 -13.25 867.9MHz, SF9BW125, 4/5CR
2026-05-09 01:43:26 10.3125°C 92.9375% 3.27V v4 52.0839 / 5.13159 27608 ttn.v3 - -106 -4.5 868.3MHz, SF9BW125, 4/5CR
2026-05-09 01:27:14 10.4375°C 94.1875% 3.27V v4 52.0839 / 5.13159 27607 ttn.v3 - -106 3 867.7MHz, SF9BW125, 4/5CR
1.926km -107 -5.75 867.7MHz, SF9BW125, 4/5CR
- -122 -6.25 867.7MHz, SF9BW125, 4/5CR
- -115 -13.25 867.7MHz, SF9BW125, 4/5CR
2026-05-09 00:54:51 10.5°C 99.1875% 3.27V v4 52.0839 / 5.13159 27605 ttn.v3 - -104 -12.25 867.5MHz, SF9BW125, 4/5CR
2026-05-09 00:38:40 10.375°C 92.375% 3.27V v4 52.0839 / 5.13159 27604 ttn.v3 - -106 -5 868.5MHz, SF9BW125, 4/5CR
2026-05-09 00:22:28 10°C 74.25% 3.27V v4 52.0839 / 5.13159 27603 ttn.v3 - -103 6.25 867.3MHz, SF9BW125, 4/5CR
1.926km -104 -4.75 867.3MHz, SF9BW125, 4/5CR
- -113 -7.5 867.3MHz, SF9BW125, 4/5CR
- -127 -10.75 867.3MHz, SF9BW125, 4/5CR
2026-05-09 00:06:17 9.8125°C 61.25% 3.27V v4 52.0839 / 5.13159 27602 ttn.v3 - -106 -6.75 868.3MHz, SF9BW125, 4/5CR
2026-05-08 23:33:54 9.9375°C 57.6875% 3.27V v4 52.0839 / 5.13159 27600 ttn.v3 - -109 -1.75 868.1MHz, SF9BW125, 4/5CR
1.926km -99 -4.5 868.1MHz, SF9BW125, 4/5CR
2026-05-08 23:17:42 10.0625°C 60.8125% 3.27V v4 52.0839 / 5.13159 27599 ttn.v3 - -112 1.75 867.9MHz, SF9BW125, 4/5CR
1.926km -107 -5.75 867.9MHz, SF9BW125, 4/5CR
2026-05-08 23:01:31 10.3125°C 69.5% 3.27V v4 52.0839 / 5.13159 27598 ttn.v3 - -107 -5 868.5MHz, SF9BW125, 4/5CR
2026-05-08 22:45:19 10.625°C -1.4375% 3.27V v4 52.0839 / 5.13159 27597 ttn.v3 1.926km -107 -3.5 867.7MHz, SF9BW125, 4/5CR
- -114 -11.5 867.7MHz, SF9BW125, 4/5CR
2026-05-08 22:29:07 10.9375°C 95.9375% 3.27V v4 52.0839 / 5.13159 27596 ttn.v3 - -108 -6.25 868.3MHz, SF9BW125, 4/5CR
2026-05-08 22:12:55 11.3125°C 24.1875% 3.27V v4 52.0839 / 5.13159 27595 ttn.v3 1.926km -97 -12.25 867.5MHz, SF9BW125, 4/5CR
- -114 -13 867.5MHz, SF9BW125, 4/5CR
2026-05-08 21:56:44 11.75°C 62% 3.27V v4 52.0839 / 5.13159 27594 ttn.v3 - -126 -11.5 868.1MHz, SF9BW125, 4/5CR
- -105 -12.75 868.1MHz, SF9BW125, 4/5CR
2026-05-08 21:40:32 12.1875°C 107.625% 3.27V v4 52.0839 / 5.13159 27593 ttn.v3 1.926km -109 -1 867.3MHz, SF9BW125, 4/5CR
- -119 -5.25 867.3MHz, SF9BW125, 4/5CR
- -115 -13 867.3MHz, SF9BW125, 4/5CR
2026-05-08 21:24:19 12.6875°C -5.125% 3.27V v4 52.0839 / 5.13159 27592 ttn.v3 - -108 -5.75 868.5MHz, SF9BW125, 4/5CR
- -123 -9.75 868.5MHz, SF9BW125, 4/5CR
2026-05-08 20:51:55 13.875°C 103.125% 3.27V v4 52.0839 / 5.13159 27590 ttn.v3 - -106 -10.5 868.3MHz, SF9BW125, 4/5CR
2026-05-08 20:35:42 14.625°C 90.0625% 3.27V v4 52.0839 / 5.13159 27589 ttn.v3 1.926km -107 1 867.9MHz, SF9BW125, 4/5CR
- -115 -10.5 867.9MHz, SF9BW125, 4/5CR
- -114 -14 867.9MHz, SF9BW125, 4/5CR
2026-05-08 20:19:29 15.5625°C 81.875% 3.28V v4 52.0839 / 5.13159 27588 ttn.v3 - -108 -0.75 868.1MHz, SF9BW125, 4/5CR
1.926km -104 -6 868.1MHz, SF9BW125, 4/5CR
- -114 -9.75 868.1MHz, SF9BW125, 4/5CR
- -128 -13.5 868.1MHz, SF9BW125, 4/5CR
2026-05-08 20:03:16 15.9375°C 76.5% 3.28V v4 52.0839 / 5.13159 27587 ttn.v3 1.926km -97 -1.75 867.7MHz, SF9BW125, 4/5CR
- -115 -7 867.7MHz, SF9BW125, 4/5CR
- -114 -12.5 867.7MHz, SF9BW125, 4/5CR
- -114 -13.25 867.7MHz, SF9BW125, 4/5CR
- -129 -14.5 867.7MHz, SF9BW125, 4/5CR
2026-05-08 19:47:03 16.0625°C 78.5% 3.28V v4 52.0839 / 5.13159 27586 ttn.v3 - -109 -7.5 868.5MHz, SF9BW125, 4/5CR
- -113 -10.25 868.5MHz, SF9BW125, 4/5CR
2026-05-08 19:30:50 16.125°C 72.8125% 3.27V v4 52.0839 / 5.13159 27585 ttn.v3 - -114 -11.5 867.5MHz, SF9BW125, 4/5CR
- -114 -13.5 867.5MHz, SF9BW125, 4/5CR
2026-05-08 19:14:37 16°C 70.3125% 3.27V v4 52.0839 / 5.13159 27584 ttn.v3 - -108 -10.75 868.3MHz, SF9BW125, 4/5CR
- -123 -11.75 868.3MHz, SF9BW125, 4/5CR
2026-05-08 18:58:24 16.1875°C 67.25% 3.28V v4 52.0839 / 5.13159 27583 ttn.v3 - -114 -13.75 867.3MHz, SF9BW125, 4/5CR
2026-05-08 18:42:11 16.1875°C 61% 3.28V v4 52.0839 / 5.13159 27582 ttn.v3 1.926km -110 -6.75 868.1MHz, SF9BW125, 4/5CR
2026-05-08 18:25:58 16.125°C 70.3125% 3.28V v4 52.0839 / 5.13159 27581 ttn.v3 1.926km -110 -1.75 867.1MHz, SF9BW125, 4/5CR
2026-05-08 18:09:45 16.0625°C 68.875% 3.28V v4 52.0839 / 5.13159 27580 ttn.v3 - -109 -8.5 868.5MHz, SF9BW125, 4/5CR
2026-05-08 17:53:32 16.1875°C 44.75% 3.28V v4 52.0839 / 5.13159 27579 ttn.v3 - -113 -3.5 867.9MHz, SF9BW125, 4/5CR
1.926km -108 -6 867.9MHz, SF9BW125, 4/5CR
2026-05-08 17:37:19 16.375°C 69.75% 3.28V v4 52.0839 / 5.13159 27578 ttn.v3 - -108 -10.25 868.3MHz, SF9BW125, 4/5CR
2026-05-08 17:21:06 16.3125°C 73.3125% 3.28V v4 52.0839 / 5.13159 27577 ttn.v3 - -114 -12.25 867.7MHz, SF9BW125, 4/5CR
2026-05-08 17:04:53 16.375°C 71.5% 3.28V v4 52.0839 / 5.13159 27576 ttn.v3 1.926km -105 -10.5 868.1MHz, SF9BW125, 4/5CR
- -115 -12.5 868.1MHz, SF9BW125, 4/5CR
2026-05-08 16:48:40 16.5°C 73% 3.28V v4 52.0839 / 5.13159 27575 ttn.v3 - -114 -14.25 867.5MHz, SF9BW125, 4/5CR
- -114 -14.25 867.5MHz, SF9BW125, 4/5CR
2026-05-08 16:32:27 16.5625°C 52.5625% 3.28V v4 52.0839 / 5.13159 27574 ttn.v3 - -106 -4.25 868.5MHz, SF9BW125, 4/5CR
- -124 -11.5 868.5MHz, SF9BW125, 4/5CR
2026-05-08 16:16:14 16.5°C 49.875% 3.28V v4 52.0839 / 5.13159 27573 ttn.v3 - -115 -14 867.3MHz, SF9BW125, 4/5CR
2026-05-08 16:00:01 16.25°C 58.1875% 3.28V v4 52.0839 / 5.13159 27572 ttn.v3 - -125 -14.5 868.3MHz, SF9BW125, 4/5CR
2026-05-08 15:43:48 16.0625°C 24.125% 3.28V v4 52.0839 / 5.13159 27571 ttn.v3 1.926km -110 -8.75 867.1MHz, SF9BW125, 4/5CR
2026-05-08 15:27:35 16°C 30.25% 3.28V v4 52.0839 / 5.13159 27570 ttn.v3 - -111 -1.5 868.1MHz, SF9BW125, 4/5CR
1.926km -105 -7.75 868.1MHz, SF9BW125, 4/5CR
2026-05-08 15:11:22 16.125°C 31.9375% 3.28V v4 52.0839 / 5.13159 27569 ttn.v3 - -108 5 867.9MHz, SF9BW125, 4/5CR
1.926km -111 -5 867.9MHz, SF9BW125, 4/5CR
- -129 -12.5 867.9MHz, SF9BW125, 4/5CR
2026-05-08 14:55:09 16.125°C 37.3125% 3.28V v4 52.0839 / 5.13159 27568 ttn.v3 - -108 -4 868.5MHz, SF9BW125, 4/5CR
- -127 -11.75 868.5MHz, SF9BW125, 4/5CR
2026-05-08 14:38:56 16.375°C 30.4375% 3.28V v4 52.0839 / 5.13159 27567 ttn.v3 - -114 -13 867.7MHz, SF9BW125, 4/5CR
2026-05-08 14:06:29 17°C 51.75% 3.28V v4 52.0839 / 5.13159 27565 ttn.v3 - -112 -12.25 867.5MHz, SF9BW125, 4/5CR
2026-05-08 13:50:16 16.9375°C 43.1875% 3.28V v4 52.0839 / 5.13159 27564 ttn.v3 - -114 -6.75 868.1MHz, SF9BW125, 4/5CR
1.926km -103 -9.25 868.1MHz, SF9BW125, 4/5CR
2026-05-08 13:17:49 17.4375°C 30.5625% 3.28V v4 52.0839 / 5.13159 27562 ttn.v3 - -123 -8.5 868.5MHz, SF9BW125, 4/5CR
- -113 -9.25 868.5MHz, SF9BW125, 4/5CR
- -115 -11.75 868.5MHz, SF9BW125, 4/5CR
2026-05-08 13:01:36 17.4375°C 43.5% 3.28V v4 52.0839 / 5.13159 27561 ttn.v3 1.926km -105 -10.5 867.1MHz, SF9BW125, 4/5CR
2026-05-08 12:45:23 17.3125°C 34.5% 3.28V v4 52.0839 / 5.13159 27560 ttn.v3 - -110 -11.5 868.3MHz, SF9BW125, 4/5CR
2026-05-08 12:29:09 17.3125°C 29.8125% 3.28V v4 52.0839 / 5.13159 27559 ttn.v3 - -108 2.5 867.9MHz, SF9BW125, 4/5CR
1.926km -109 -3 867.9MHz, SF9BW125, 4/5CR
- -123 -6.5 867.9MHz, SF9BW125, 4/5CR
2026-05-08 11:56:44 15.75°C 2.75% 3.27V v4 52.0839 / 5.13159 27557 ttn.v3 1.926km -105 -3.25 867.7MHz, SF9BW125, 4/5CR
- -114 -14.25 867.7MHz, SF9BW125, 4/5CR
2026-05-08 11:40:31 15.25°C 110.125% 3.27V v4 52.0839 / 5.13159 27556 ttn.v3 - -107 -1.75 868.5MHz, SF9BW125, 4/5CR
- -113 -12.75 868.5MHz, SF9BW125, 4/5CR
2026-05-08 11:24:18 14.6875°C 103.625% 3.27V v4 52.0839 / 5.13159 27555 ttn.v3 - -106 -9.5 867.5MHz, SF9BW125, 4/5CR
- -125 -13.5 867.5MHz, SF9BW125, 4/5CR
2026-05-08 10:51:54 13.5625°C 89.1875% 3.27V v4 52.0839 / 5.13159 27553 ttn.v3 - -115 -5.5 867.3MHz, SF9BW125, 4/5CR
- -130 -14.5 867.3MHz, SF9BW125, 4/5CR
2026-05-08 10:37:00 13.1875°C 82% 3.27V v4 52.0839 / 5.13159 27552 ttn.v3 - -124 -8.25 868.1MHz, SF12BW125, 4/5CR
- -119 -9 868.1MHz, SF12BW125, 4/5CR
- -115 -16.25 868.1MHz, SF12BW125, 4/5CR
2026-05-08 10:19:35 12.75°C 46.25% 3.27V v4 52.0839 / 5.13159 27551 ttn.v3 - -110 1.5 867.1MHz, SF9BW125, 4/5CR
1.926km -107 -1.75 867.1MHz, SF9BW125, 4/5CR
2026-05-08 09:47:11 11.625°C 118.062% 3.27V v4 52.0839 / 5.13159 27549 ttn.v3 - -107 2.25 867.9MHz, SF9BW125, 4/5CR
1.926km -107 -2.75 867.9MHz, SF9BW125, 4/5CR
- -128 -12.5 867.9MHz, SF9BW125, 4/5CR
- -114 -12.75 867.9MHz, SF9BW125, 4/5CR
2026-05-08 09:31:00 11.1875°C 89.8125% 3.27V v4 52.0839 / 5.13159 27548 ttn.v3 - -113 -14.25 868.3MHz, SF9BW125, 4/5CR
2026-05-08 09:14:48 10.8125°C 74.25% 3.27V v4 52.0839 / 5.13159 27547 ttn.v3 - -110 -1 867.7MHz, SF9BW125, 4/5CR
- -119 -4.25 867.7MHz, SF9BW125, 4/5CR
1.926km -105 -9.25 867.7MHz, SF9BW125, 4/5CR
2026-05-08 08:58:36 10.4375°C 65.125% 3.27V v4 52.0839 / 5.13159 27546 ttn.v3 - -115 -6.25 868.1MHz, SF9BW125, 4/5CR
- -129 -13 868.1MHz, SF9BW125, 4/5CR
2026-05-08 08:26:14 10°C 57.25% 3.27V v4 52.0839 / 5.13159 27544 ttn.v3 - -126 -14.5 868.5MHz, SF9BW125, 4/5CR
2026-05-08 08:10:03 9.8125°C 55.5% 3.27V v4 52.0839 / 5.13159 27543 ttn.v3 - -117 -6.25 867.3MHz, SF9BW125, 4/5CR
2026-05-08 07:53:51 9.6875°C 52.75% 3.27V v4 52.0839 / 5.13159 27542 ttn.v3 - -113 -10.25 868.3MHz, SF9BW125, 4/5CR
2026-05-08 07:37:40 9.625°C 51.5% 3.27V v4 52.0839 / 5.13159 27541 ttn.v3 - -115 -7.25 867.1MHz, SF9BW125, 4/5CR
2026-05-08 07:21:28 9.5625°C 50.125% 3.27V v4 52.0839 / 5.13159 27540 ttn.v3 - -112 0.25 868.1MHz, SF9BW125, 4/5CR
1.926km -110 -7 868.1MHz, SF9BW125, 4/5CR
- -130 -14.75 868.1MHz, SF9BW125, 4/5CR
2026-05-08 07:05:17 9.5°C 51.125% 3.27V v4 52.0839 / 5.13159 27539 ttn.v3 - -111 -0.5 867.9MHz, SF9BW125, 4/5CR
1.926km -110 -7.75 867.9MHz, SF9BW125, 4/5CR
- -125 -8.5 867.9MHz, SF9BW125, 4/5CR
2026-05-08 06:49:06 9.5°C 44% 3.27V v4 52.0839 / 5.13159 27538 ttn.v3 - -112 -9 868.5MHz, SF9BW125, 4/5CR
- -114 -9.75 868.5MHz, SF9BW125, 4/5CR
- -128 -14.5 868.5MHz, SF9BW125, 4/5CR
2026-05-08 06:32:55 9.5°C 55.3125% 3.27V v4 52.0839 / 5.13159 27537 ttn.v3 - -106 0 867.7MHz, SF9BW125, 4/5CR
2026-05-08 05:44:20 9.6875°C 59% 3.27V v4 52.0839 / 5.13159 27534 ttn.v3 - -112 -1 868.1MHz, SF9BW125, 4/5CR
1.926km -109 -6 868.1MHz, SF9BW125, 4/5CR
- -124 -7.75 868.1MHz, SF9BW125, 4/5CR
2026-05-08 05:28:09 9.75°C 59.375% 3.27V v4 52.0839 / 5.13159 27533 ttn.v3 - -122 -6.25 867.3MHz, SF9BW125, 4/5CR
2026-05-08 05:11:58 9.875°C 63.0625% 3.27V v4 52.0839 / 5.13159 27532 ttn.v3 - -115 -11.5 868.5MHz, SF9BW125, 4/5CR
- -128 -13.25 868.5MHz, SF9BW125, 4/5CR
2026-05-08 04:55:46 10°C 67.9375% 3.27V v4 52.0839 / 5.13159 27531 ttn.v3 1.926km -105 -0.25 867.1MHz, SF9BW125, 4/5CR
- -114 -13.5 867.1MHz, SF9BW125, 4/5CR
2026-05-08 04:39:35 10.0625°C 72.375% 3.27V v4 52.0839 / 5.13159 27530 ttn.v3 - -114 -11 868.3MHz, SF9BW125, 4/5CR
2026-05-08 04:07:12 10.3125°C 105.562% 3.27V v4 52.0839 / 5.13159 27528 ttn.v3 - -109 -1.25 868.1MHz, SF9BW125, 4/5CR
2026-05-08 03:51:00 10.5°C 89.25% 3.27V v4 52.0839 / 5.13159 27527 ttn.v3 - -115 -13.75 867.7MHz, SF9BW125, 4/5CR
2026-05-08 03:34:49 10.5625°C 103.688% 3.27V v4 52.0839 / 5.13159 27526 ttn.v3 - -105 0 868.5MHz, SF9BW125, 4/5CR
- -114 -8.75 868.5MHz, SF9BW125, 4/5CR
- -114 -12.75 868.5MHz, SF9BW125, 4/5CR
2026-05-08 03:18:37 10.75°C 7.5625% 3.27V v4 52.0839 / 5.13159 27525 ttn.v3 - -110 -11.25 867.5MHz, SF9BW125, 4/5CR
2026-05-08 03:02:26 10.875°C 36.75% 3.27V v4 52.0839 / 5.13159 27524 ttn.v3 - -113 -13.25 868.3MHz, SF9BW125, 4/5CR
2026-05-08 02:30:02 11.125°C 63.5% 3.27V v4 52.0839 / 5.13159 27522 ttn.v3 1.926km -108 -3.75 868.1MHz, SF9BW125, 4/5CR
- -113 -4.75 868.1MHz, SF9BW125, 4/5CR
2026-05-08 02:13:51 11.25°C 77.375% 3.27V v4 52.0839 / 5.13159 27521 ttn.v3 - -114 -13.5 867.1MHz, SF9BW125, 4/5CR
2026-05-08 01:57:39 11.375°C 80.9375% 3.27V v4 52.0839 / 5.13159 27520 ttn.v3 - -115 -11.25 868.5MHz, SF9BW125, 4/5CR
- -127 -13 868.5MHz, SF9BW125, 4/5CR
2026-05-08 01:41:27 11.5°C 96.9375% 3.27V v4 52.0839 / 5.13159 27519 ttn.v3 - -109 -3.25 867.9MHz, SF9BW125, 4/5CR
1.926km -104 -6.75 867.9MHz, SF9BW125, 4/5CR
- -125 -9 867.9MHz, SF9BW125, 4/5CR
2026-05-08 01:25:15 11.5625°C 93.6875% 3.27V v4 52.0839 / 5.13159 27518 ttn.v3 - -105 -5.5 868.3MHz, SF9BW125, 4/5CR
- -115 -12.25 868.3MHz, SF9BW125, 4/5CR
2026-05-08 01:09:03 11.6875°C 103.875% 3.27V v4 52.0839 / 5.13159 27517 ttn.v3 1.926km -105 1 867.7MHz, SF9BW125, 4/5CR
- -122 -10 867.7MHz, SF9BW125, 4/5CR
2026-05-08 00:52:52 11.8125°C 108.25% 3.27V v4 52.0839 / 5.13159 27516 ttn.v3 1.926km -109 -2 868.1MHz, SF9BW125, 4/5CR
- -115 -5 868.1MHz, SF9BW125, 4/5CR
2026-05-08 00:20:28 12.0625°C 117.688% 3.27V v4 52.0839 / 5.13159 27514 ttn.v3 - -107 -6.25 868.5MHz, SF9BW125, 4/5CR
- -113 -13 868.5MHz, SF9BW125, 4/5CR
2026-05-08 00:04:16 12.125°C -4.875% 3.27V v4 52.0839 / 5.13159 27513 ttn.v3 1.926km -107 -5.25 867.3MHz, SF9BW125, 4/5CR
- -113 -5.75 867.3MHz, SF9BW125, 4/5CR
2026-05-07 23:48:04 12.3125°C 118.75% 3.27V v4 52.0839 / 5.13159 27512 ttn.v3 - -105 -3.25 868.3MHz, SF9BW125, 4/5CR
- -123 -10 868.3MHz, SF9BW125, 4/5CR
2026-05-07 23:31:52 12.5625°C 104.875% 3.27V v4 52.0839 / 5.13159 27511 ttn.v3 - -107 7 867.1MHz, SF9BW125, 4/5CR
1.926km -107 -0.75 867.1MHz, SF9BW125, 4/5CR
- -127 -9.75 867.1MHz, SF9BW125, 4/5CR
- -115 -10.25 867.1MHz, SF9BW125, 4/5CR
2026-05-07 23:15:40 12.6875°C 100.688% 3.27V v4 52.0839 / 5.13159 27510 ttn.v3 - -104 3.25 868.1MHz, SF9BW125, 4/5CR
- -126 -10 868.1MHz, SF9BW125, 4/5CR
2026-05-07 22:59:27 12.9375°C 91.625% 3.27V v4 52.0839 / 5.13159 27509 ttn.v3 - -109 2.25 867.9MHz, SF9BW125, 4/5CR
1.926km -111 -5.75 867.9MHz, SF9BW125, 4/5CR
2026-05-07 22:43:15 13.0625°C 92.5% 3.27V v4 52.0839 / 5.13159 27508 ttn.v3 - -109 -3.5 868.5MHz, SF9BW125, 4/5CR
- -113 -13.5 868.5MHz, SF9BW125, 4/5CR
2026-05-07 22:27:03 13.125°C 89% 3.27V v4 52.0839 / 5.13159 27507 ttn.v3 1.926km -104 -5.25 867.7MHz, SF9BW125, 4/5CR
- -113 -10 867.7MHz, SF9BW125, 4/5CR
2026-05-07 22:10:51 13.3125°C 82.9375% 3.27V v4 52.0839 / 5.13159 27506 ttn.v3 - -106 -5 868.3MHz, SF9BW125, 4/5CR
2026-05-07 21:54:38 13.5°C 82.4375% 3.27V v4 52.0839 / 5.13159 27505 ttn.v3 1.926km -92 -12.75 867.5MHz, SF9BW125, 4/5CR
- -112 -13.25 867.5MHz, SF9BW125, 4/5CR
2026-05-07 21:38:26 13.6875°C 78.1875% 3.27V v4 52.0839 / 5.13159 27504 ttn.v3 - -117 -12.5 868.1MHz, SF9BW125, 4/5CR
2026-05-07 21:22:14 13.8125°C 78.25% 3.27V v4 52.0839 / 5.13159 27503 ttn.v3 1.926km -107 -0.25 867.3MHz, SF9BW125, 4/5CR
- -120 -7.75 867.3MHz, SF9BW125, 4/5CR
- -113 -13 867.3MHz, SF9BW125, 4/5CR
- -130 -13.75 867.3MHz, SF9BW125, 4/5CR
- -114 -14.5 867.3MHz, SF9BW125, 4/5CR
2026-05-07 20:49:49 14°C 76.5% 3.27V v4 52.0839 / 5.13159 27501 ttn.v3 1.926km -104 3.75 867.1MHz, SF9BW125, 4/5CR
- -112 2.5 867.1MHz, SF9BW125, 4/5CR
2026-05-07 20:33:36 14.1875°C 75.25% 3.27V v4 52.0839 / 5.13159 27500 ttn.v3 - -104 -8.75 868.3MHz, SF9BW125, 4/5CR
2026-05-07 20:17:24 14.3125°C 73.125% 3.27V v4 52.0839 / 5.13159 27499 ttn.v3 1.926km -104 -2 867.9MHz, SF9BW125, 4/5CR
- -120 -10 867.9MHz, SF9BW125, 4/5CR
- -114 -12.5 867.9MHz, SF9BW125, 4/5CR
2026-05-07 20:01:11 14.5°C 72.375% 3.27V v4 52.0839 / 5.13159 27498 ttn.v3 1.926km -104 0.25 868.1MHz, SF9BW125, 4/5CR
2026-05-07 19:44:59 14.5625°C 73.9375% 3.27V v4 52.0839 / 5.13159 27497 ttn.v3 1.926km -93 1 867.7MHz, SF9BW125, 4/5CR
- -110 0.75 867.7MHz, SF9BW125, 4/5CR
- -115 -9.75 867.7MHz, SF9BW125, 4/5CR
2026-05-07 19:28:46 14.6875°C 73.5% 3.27V v4 52.0839 / 5.13159 27496 ttn.v3 - -105 -4.75 868.5MHz, SF9BW125, 4/5CR
2026-05-07 18:56:21 14.875°C 73.375% 3.28V v4 52.0839 / 5.13159 27494 ttn.v3 - -106 -10.5 868.3MHz, SF9BW125, 4/5CR
2026-05-07 18:40:08 15.0625°C 73.25% 3.28V v4 52.0839 / 5.13159 27493 ttn.v3 1.926km -101 -7 867.3MHz, SF9BW125, 4/5CR
- -120 -8.75 867.3MHz, SF9BW125, 4/5CR
2026-05-07 18:23:55 15.1875°C 72.3125% 3.27V v4 52.0839 / 5.13159 27492 ttn.v3 - -101 -2 868.1MHz, SF9BW125, 4/5CR
1.926km -105 -9 868.1MHz, SF9BW125, 4/5CR
- -124 -9.5 868.1MHz, SF9BW125, 4/5CR
- -113 -9.5 868.1MHz, SF9BW125, 4/5CR
2026-05-07 17:35:17 16.3125°C 63.25% 3.28V v4 52.0839 / 5.13159 27489 ttn.v3 1.926km -103 4.75 867.9MHz, SF9BW125, 4/5CR
2026-05-07 17:19:03 16.6875°C 65.9375% 3.28V v4 52.0839 / 5.13159 27488 ttn.v3 - -105 -10.25 868.3MHz, SF9BW125, 4/5CR
2026-05-07 17:02:50 16.5°C 65.9375% 3.27V v4 52.0839 / 5.13159 27487 ttn.v3 - -105 3.5 867.7MHz, SF9BW125, 4/5CR
1.926km -105 1 867.7MHz, SF9BW125, 4/5CR
- -113 -12 867.7MHz, SF9BW125, 4/5CR
- -114 -12.75 867.7MHz, SF9BW125, 4/5CR
- -129 -13 867.7MHz, SF9BW125, 4/5CR
2026-05-07 16:46:37 15.9375°C 65.75% 3.28V v4 52.0839 / 5.13159 27486 ttn.v3 - -109 0.5 868.1MHz, SF9BW125, 4/5CR
- -115 -12 868.1MHz, SF9BW125, 4/5CR
2026-05-07 16:30:24 15.9375°C 68.5% 3.28V v4 52.0839 / 5.13159 27485 ttn.v3 - -113 -10.75 867.5MHz, SF9BW125, 4/5CR
2026-05-07 16:14:11 16°C 69.25% 3.28V v4 52.0839 / 5.13159 27484 ttn.v3 - -112 -10.5 868.5MHz, SF9BW125, 4/5CR
2026-05-07 15:57:59 16°C 73.0625% 3.28V v4 52.0839 / 5.13159 27483 ttn.v3 1.926km -103 0 867.3MHz, SF9BW125, 4/5CR
2026-05-07 15:41:46 15.9375°C 75.6875% 3.28V v4 52.0839 / 5.13159 27482 ttn.v3 - -109 -13.5 868.3MHz, SF9BW125, 4/5CR
2026-05-07 15:25:33 16.0625°C 61.875% 3.28V v4 52.0839 / 5.13159 27481 ttn.v3 1.926km -105 -5.75 867.1MHz, SF9BW125, 4/5CR
- -115 -10.75 867.1MHz, SF9BW125, 4/5CR
2026-05-07 15:09:20 16.125°C 44.4375% 3.28V v4 52.0839 / 5.13159 27480 ttn.v3 - -109 -1.25 868.1MHz, SF9BW125, 4/5CR
2026-05-07 14:53:06 16.25°C 63.125% 3.28V v4 52.0839 / 5.13159 27479 ttn.v3 - -115 -8.75 867.9MHz, SF9BW125, 4/5CR
2026-05-07 14:36:53 16.25°C 76.875% 3.28V v4 52.0839 / 5.13159 27478 ttn.v3 - -111 -7 868.5MHz, SF9BW125, 4/5CR
- -113 -11 868.5MHz, SF9BW125, 4/5CR
- -126 -12 868.5MHz, SF9BW125, 4/5CR
2026-05-07 14:20:40 16.6875°C 83.3125% 3.28V v4 52.0839 / 5.13159 27477 ttn.v3 1.926km -107 -1.5 867.7MHz, SF9BW125, 4/5CR
- -114 -8.75 867.7MHz, SF9BW125, 4/5CR
2026-05-07 14:04:27 17.25°C 75.8125% 3.28V v4 52.0839 / 5.13159 27476 ttn.v3 - -111 -8.25 868.3MHz, SF9BW125, 4/5CR
2026-05-07 13:48:14 17.125°C 74.75% 3.28V v4 52.0839 / 5.13159 27475 ttn.v3 - -114 -9.25 867.5MHz, SF9BW125, 4/5CR
- -122 -13.25 867.5MHz, SF9BW125, 4/5CR
2026-05-07 13:32:00 16.5°C 74.375% 3.28V v4 52.0839 / 5.13159 27474 ttn.v3 1.926km -101 -3.5 868.1MHz, SF9BW125, 4/5CR
- -115 -10.25 868.1MHz, SF9BW125, 4/5CR
2026-05-07 13:15:47 16.75°C 71% 3.28V v4 52.0839 / 5.13159 27473 ttn.v3 - -110 0 867.3MHz, SF9BW125, 4/5CR
- -113 -5.75 867.3MHz, SF9BW125, 4/5CR
2026-05-07 12:59:34 16.625°C 60.4375% 3.28V v4 52.0839 / 5.13159 27472 ttn.v3 - -110 -6 868.5MHz, SF9BW125, 4/5CR
2026-05-07 12:43:21 16.875°C 66.375% 3.28V v4 52.0839 / 5.13159 27471 ttn.v3 1.926km -104 1 867.1MHz, SF9BW125, 4/5CR
- -113 0.25 867.1MHz, SF9BW125, 4/5CR
- -115 -7.25 867.1MHz, SF9BW125, 4/5CR
2026-05-07 12:27:08 16.3125°C 38.875% 3.28V v4 52.0839 / 5.13159 27470 ttn.v3 - -107 -6.75 868.3MHz, SF9BW125, 4/5CR
- -107 -7.25 868.3MHz, SF9BW125, 4/5CR
2026-05-07 12:10:55 15.9375°C 59% 3.28V v4 52.0839 / 5.13159 27469 ttn.v3 1.926km -104 3.75 867.9MHz, SF9BW125, 4/5CR
- -108 -5.25 867.9MHz, SF9BW125, 4/5CR
- -113 -9.25 867.9MHz, SF9BW125, 4/5CR
2026-05-07 11:54:42 16.0625°C 61.8125% 3.28V v4 52.0839 / 5.13159 27468 ttn.v3 1.926km -109 -6.75 868.1MHz, SF9BW125, 4/5CR
- -127 -10.75 868.1MHz, SF9BW125, 4/5CR
2026-05-07 11:38:29 15.6875°C 39.8125% 3.28V v4 52.0839 / 5.13159 27467 ttn.v3 1.926km -95 1 867.7MHz, SF9BW125, 4/5CR
- -114 -5.25 867.7MHz, SF9BW125, 4/5CR
- -118 -7.75 867.7MHz, SF9BW125, 4/5CR
- -126 -12 867.7MHz, SF9BW125, 4/5CR
2026-05-07 11:22:16 15.1875°C 44.25% 3.27V v4 52.0839 / 5.13159 27466 ttn.v3 - -99 -8.25 868.5MHz, SF9BW125, 4/5CR
2026-05-07 11:06:04 14.75°C 28.125% 3.27V v4 52.0839 / 5.13159 27465 ttn.v3 - -103 -5.25 867.5MHz, SF9BW125, 4/5CR
- -113 -9.5 867.5MHz, SF9BW125, 4/5CR
2026-05-07 10:33:39 13.9375°C 29% 3.27V v4 52.0839 / 5.13159 27463 ttn.v3 1.926km -105 3.5 867.3MHz, SF9BW125, 4/5CR
- -110 -6.5 867.3MHz, SF9BW125, 4/5CR
2026-05-07 10:17:26 13.5°C 0.625% 3.27V v4 52.0839 / 5.13159 27462 ttn.v3 - -111 -1.75 868.1MHz, SF9BW125, 4/5CR
- -122 -7 868.1MHz, SF9BW125, 4/5CR
2026-05-07 10:01:14 13.1875°C 114.5% 3.27V v4 52.0839 / 5.13159 27461 ttn.v3 - -114 -6.25 867.1MHz, SF9BW125, 4/5CR
2026-05-07 09:45:02 12.5°C 107.688% 3.27V v4 52.0839 / 5.13159 27460 ttn.v3 - -114 -5.75 868.5MHz, SF9BW125, 4/5CR
- -117 -9 868.5MHz, SF9BW125, 4/5CR
- -125 -11 868.5MHz, SF9BW125, 4/5CR
2026-05-07 09:28:50 11.9375°C 104.875% 3.27V v4 52.0839 / 5.13159 27459 ttn.v3 - -104 4.75 867.9MHz, SF9BW125, 4/5CR
- -114 -6.25 867.9MHz, SF9BW125, 4/5CR
1.926km -107 -8.25 867.9MHz, SF9BW125, 4/5CR
- -128 -12.5 867.9MHz, SF9BW125, 4/5CR
2026-05-07 08:56:27 11.1875°C 89.25% 3.27V v4 52.0839 / 5.13159 27457 ttn.v3 - -106 3.5 867.7MHz, SF9BW125, 4/5CR
1.926km -101 1.5 867.7MHz, SF9BW125, 4/5CR
- -114 -6 867.7MHz, SF9BW125, 4/5CR
- -130 -14.25 867.7MHz, SF9BW125, 4/5CR
2026-05-07 08:41:41 10.625°C 91.1875% 3.26V v4 52.0839 / 5.13159 27456 ttn.v3 1.926km -105 -6.75 868.1MHz, SF12BW125, 4/5CR
- -124 -14.5 868.1MHz, SF12BW125, 4/5CR
- -131 -16.25 868.1MHz, SF12BW125, 4/5CR
2026-05-07 08:24:10 10.125°C 27.375% 3.27V v4 52.0839 / 5.13162 27455 ttn.v3 - -110 -13.5 867.5MHz, SF9BW125, 4/5CR
2026-05-07 08:07:58 9.5°C 89.75% 3.27V v4 52.0839 / 5.13162 27454 ttn.v3 - -113 -10 868.5MHz, SF9BW125, 4/5CR
2026-05-07 07:51:47 9°C 70.8125% 3.27V v4 52.0839 / 5.13162 27453 ttn.v3 - -110 -0.75 867.3MHz, SF9BW125, 4/5CR
- -126 -10.25 867.3MHz, SF9BW125, 4/5CR
- -114 -13 867.3MHz, SF9BW125, 4/5CR
2026-05-07 07:19:25 8.125°C 43.8125% 3.27V v4 52.0839 / 5.13162 27451 ttn.v3 - -116 -5 867.1MHz, SF9BW125, 4/5CR
- -126 -8.75 867.1MHz, SF9BW125, 4/5CR
- -115 -11.5 867.1MHz, SF9BW125, 4/5CR
2026-05-07 07:03:14 8°C 43.8125% 3.27V v4 52.0839 / 5.13162 27450 ttn.v3 - -128 -14 868.1MHz, SF9BW125, 4/5CR
2026-05-07 06:47:03 7.8125°C 43.8125% 3.27V v4 52.0839 / 5.13162 27449 ttn.v3 - -109 3.25 867.9MHz, SF9BW125, 4/5CR
1.925km -104 -3 867.9MHz, SF9BW125, 4/5CR
- -114 -7.75 867.9MHz, SF9BW125, 4/5CR
- -130 -14.25 867.9MHz, SF9BW125, 4/5CR
2026-05-07 06:14:42 7.375°C 43.75% 3.26V v4 52.0839 / 5.13162 27447 ttn.v3 - -106 4 867.7MHz, SF9BW125, 4/5CR
- -114 -7.25 867.7MHz, SF9BW125, 4/5CR
- -129 -13.5 867.7MHz, SF9BW125, 4/5CR
2026-05-07 05:58:31 7.1875°C 43.75% 3.27V v4 52.0839 / 5.13162 27446 ttn.v3 - -123 -14.25 868.3MHz, SF9BW125, 4/5CR
2026-05-07 05:42:20 7.125°C 43.75% 3.27V v4 52.0839 / 5.13162 27445 ttn.v3 - -112 -4.75 867.5MHz, SF9BW125, 4/5CR
2026-05-07 05:26:09 7.125°C 43.75% 3.27V v4 52.0839 / 5.13162 27444 ttn.v3 1.925km -107 -4.75 868.1MHz, SF9BW125, 4/5CR
- -114 -7.25 868.1MHz, SF9BW125, 4/5CR
- -126 -11.75 868.1MHz, SF9BW125, 4/5CR
- -106 -12 868.1MHz, SF9BW125, 4/5CR
2026-05-07 05:09:59 7.0625°C 43.75% 3.26V v4 52.0839 / 5.13162 27443 ttn.v3 - -114 -6 867.3MHz, SF9BW125, 4/5CR
2026-05-07 04:53:48 7°C 51.8125% 3.27V v4 52.0839 / 5.13162 27442 ttn.v3 - -109 -3.75 868.5MHz, SF9BW125, 4/5CR
- -112 -8 868.5MHz, SF9BW125, 4/5CR
2026-05-07 04:37:37 7.1875°C 58.875% 3.26V v4 52.0839 / 5.13162 27441 ttn.v3 1.925km -98 -5.25 867.1MHz, SF9BW125, 4/5CR
- -115 -11.75 867.1MHz, SF9BW125, 4/5CR
2026-05-07 04:21:26 7.625°C 71.75% 3.27V v4 52.0839 / 5.13162 27440 ttn.v3 - -107 -7.25 868.3MHz, SF9BW125, 4/5CR
- -111 -13.75 868.3MHz, SF9BW125, 4/5CR
2026-05-07 04:05:15 8.0625°C 35.375% 3.27V v4 52.0839 / 5.13162 27439 ttn.v3 - -106 4.5 867.9MHz, SF9BW125, 4/5CR
1.925km -105 -4.25 867.9MHz, SF9BW125, 4/5CR
- -115 -6.25 867.9MHz, SF9BW125, 4/5CR
- -129 -13 867.9MHz, SF9BW125, 4/5CR
2026-05-07 03:49:04 8.3125°C 93.125% 3.27V v4 52.0839 / 5.13162 27438 ttn.v3 - -108 -1.5 868.1MHz, SF9BW125, 4/5CR
- -113 -6.5 868.1MHz, SF9BW125, 4/5CR
1.925km -103 -10 868.1MHz, SF9BW125, 4/5CR
2026-05-07 03:32:53 8.625°C 21.75% 3.27V v4 52.0839 / 5.13162 27437 ttn.v3 - -114 -2 867.7MHz, SF9BW125, 4/5CR
1.925km -105 -5 867.7MHz, SF9BW125, 4/5CR
- -114 -6 867.7MHz, SF9BW125, 4/5CR
- -127 -10.75 867.7MHz, SF9BW125, 4/5CR
2026-05-07 03:16:42 8.75°C 60.0625% 3.27V v4 52.0839 / 5.13162 27436 ttn.v3 - -110 -6.25 868.5MHz, SF9BW125, 4/5CR
- -112 -11.75 868.5MHz, SF9BW125, 4/5CR
- -130 -15.75 868.5MHz, SF9BW125, 4/5CR
2026-05-07 02:44:20 8.9375°C 76% 3.27V v4 52.0839 / 5.13162 27434 ttn.v3 - -108 -6.25 868.3MHz, SF9BW125, 4/5CR
- -124 -10.75 868.3MHz, SF9BW125, 4/5CR
2026-05-07 02:28:09 9.0625°C 80.5% 3.27V v4 52.0839 / 5.13162 27433 ttn.v3 1.925km -98 -1.5 867.3MHz, SF9BW125, 4/5CR
- -114 -10 867.3MHz, SF9BW125, 4/5CR
2026-05-07 02:11:57 9.3125°C 103.438% 3.27V v4 52.0839 / 5.13162 27432 ttn.v3 - -108 -4 868.1MHz, SF9BW125, 4/5CR
- -114 -5.75 868.1MHz, SF9BW125, 4/5CR
2026-05-07 01:55:46 9.5625°C 116.5% 3.27V v4 52.0839 / 5.13162 27431 ttn.v3 - -111 3.25 867.1MHz, SF9BW125, 4/5CR
1.925km -105 -3.5 867.1MHz, SF9BW125, 4/5CR
2026-05-07 01:39:35 9.8125°C -3.6875% 3.27V v4 52.0839 / 5.13162 27430 ttn.v3 - -106 -1.75 868.5MHz, SF9BW125, 4/5CR
- -113 -11.75 868.5MHz, SF9BW125, 4/5CR
2026-05-07 01:23:23 10.1875°C -3.0625% 3.27V v4 52.0839 / 5.13162 27429 ttn.v3 - -106 3.75 867.9MHz, SF9BW125, 4/5CR
1.925km -107 -4.5 867.9MHz, SF9BW125, 4/5CR
- -126 -9.75 867.9MHz, SF9BW125, 4/5CR
- -115 -10.75 867.9MHz, SF9BW125, 4/5CR
2026-05-07 01:07:12 10.375°C 117.938% 3.27V v4 52.0839 / 5.13162 27428 ttn.v3 - -114 -12 868.3MHz, SF9BW125, 4/5CR
2026-05-07 00:51:00 10.625°C 115.312% 3.27V v4 52.0839 / 5.13162 27427 ttn.v3 - -105 1.5 867.7MHz, SF9BW125, 4/5CR
1.925km -104 -0.25 867.7MHz, SF9BW125, 4/5CR
- -114 -10.25 867.7MHz, SF9BW125, 4/5CR
2026-05-07 00:18:37 11°C 111.062% 3.27V v4 52.0839 / 5.13162 27425 ttn.v3 - -114 -9.25 867.5MHz, SF9BW125, 4/5CR
- -109 -13 867.5MHz, SF9BW125, 4/5CR
2026-05-06 23:13:50 11.4375°C 90.25% 3.27V v4 52.0839 / 5.13162 27421 ttn.v3 - -115 -3.75 867.1MHz, SF9BW125, 4/5CR
2026-05-06 22:57:38 11.5625°C 94.625% 3.27V v4 52.0839 / 5.13162 27420 ttn.v3 - -108 -4.25 868.1MHz, SF9BW125, 4/5CR
- -124 -9.5 868.1MHz, SF9BW125, 4/5CR
- -117 -13 868.1MHz, SF9BW125, 4/5CR
2026-05-06 22:25:14 11.9375°C 91.375% 3.27V v4 52.0839 / 5.13162 27418 ttn.v3 - -125 -10 868.5MHz, SF9BW125, 4/5CR
2026-05-06 22:09:03 12.0625°C 94.75% 3.27V v4 52.0839 / 5.13162 27417 ttn.v3 1.925km -105 -1.25 867.7MHz, SF9BW125, 4/5CR
2026-05-06 21:36:39 12.3125°C 98.3125% 3.27V v4 52.0839 / 5.13162 27415 ttn.v3 - -112 -6.75 867.5MHz, SF9BW125, 4/5CR
2026-05-06 21:20:27 12.375°C 73.6875% 3.27V v4 52.0839 / 5.13162 27414 ttn.v3 - -104 3.75 868.1MHz, SF9BW125, 4/5CR
1.925km -99 2.25 868.1MHz, SF9BW125, 4/5CR
- -124 -8.5 868.1MHz, SF9BW125, 4/5CR
- -115 -11 868.1MHz, SF9BW125, 4/5CR
2026-05-06 21:04:15 12.375°C 77.5625% 3.27V v4 52.0839 / 5.13162 27413 ttn.v3 - -109 2 867.3MHz, SF9BW125, 4/5CR
- -111 -6.25 867.3MHz, SF9BW125, 4/5CR
2026-05-06 20:48:03 12.5°C 76.5625% 3.27V v4 52.0839 / 5.13162 27412 ttn.v3 - -127 -14.25 868.5MHz, SF9BW125, 4/5CR
2026-05-06 20:31:51 12.5625°C 71.9375% 3.27V v4 52.0839 / 5.13162 27411 ttn.v3 - -115 -13 867.1MHz, SF9BW125, 4/5CR
2026-05-06 20:15:38 12.6875°C 71.9375% 3.27V v4 52.0839 / 5.13162 27410 ttn.v3 - -124 -13.25 868.3MHz, SF9BW125, 4/5CR
2026-05-06 19:59:26 12.9375°C 69.9375% 3.27V v4 52.0839 / 5.13162 27409 ttn.v3 1.925km -100 3.75 867.9MHz, SF9BW125, 4/5CR
- -113 -2.75 867.9MHz, SF9BW125, 4/5CR
- -115 -10.75 867.9MHz, SF9BW125, 4/5CR
- -130 -14.5 867.9MHz, SF9BW125, 4/5CR
2026-05-06 19:43:14 13.0625°C 68.125% 3.27V v4 52.0839 / 5.13162 27408 ttn.v3 1.925km -103 -9 868.1MHz, SF9BW125, 4/5CR
- -113 -11.25 868.1MHz, SF9BW125, 4/5CR
- -126 -12 868.1MHz, SF9BW125, 4/5CR
- -106 -12.25 868.1MHz, SF9BW125, 4/5CR
2026-05-06 19:27:02 13.1875°C 67.5625% 3.27V v4 52.0839 / 5.13162 27407 ttn.v3 1.925km -101 -1.5 867.7MHz, SF9BW125, 4/5CR
- -114 -4.25 867.7MHz, SF9BW125, 4/5CR
2026-05-06 19:10:50 13.25°C 66.375% 3.27V v4 52.0839 / 5.13162 27406 ttn.v3 - -112 -5.5 868.5MHz, SF9BW125, 4/5CR
- -113 -9.75 868.5MHz, SF9BW125, 4/5CR
- -129 -15 868.5MHz, SF9BW125, 4/5CR
2026-05-06 18:54:37 13.4375°C 67.1875% 3.27V v4 52.0839 / 5.13162 27405 ttn.v3 - -113 -11.5 867.5MHz, SF9BW125, 4/5CR
2026-05-06 18:38:25 13.5°C 64.5% 3.27V v4 52.0839 / 5.13162 27404 ttn.v3 - -109 -14 868.3MHz, SF9BW125, 4/5CR
2026-05-06 18:22:13 13.5625°C 64.6875% 3.27V v4 52.0839 / 5.13162 27403 ttn.v3 - -114 -6.25 867.3MHz, SF9BW125, 4/5CR
- -125 -9.75 867.3MHz, SF9BW125, 4/5CR
2026-05-06 18:06:00 13.625°C 63.625% 3.27V v4 52.0839 / 5.13162 27402 ttn.v3 - -115 -9.5 868.1MHz, SF9BW125, 4/5CR
- -107 -12.75 868.1MHz, SF9BW125, 4/5CR
2026-05-06 17:49:48 13.6875°C 63.5% 3.27V v4 52.0839 / 5.13162 27401 ttn.v3 - -115 -2.5 867.1MHz, SF9BW125, 4/5CR
1.925km -108 -5 867.1MHz, SF9BW125, 4/5CR
- -114 -7.75 867.1MHz, SF9BW125, 4/5CR
2026-05-06 17:33:36 13.8125°C 62.625% 3.27V v4 52.0839 / 5.13162 27400 ttn.v3 1.925km -94 -12 868.5MHz, SF9BW125, 4/5CR
- -130 -15.25 868.5MHz, SF9BW125, 4/5CR
2026-05-06 17:17:23 13.625°C 63.4375% 3.27V v4 52.0839 / 5.13162 27399 ttn.v3 - -114 -11 867.9MHz, SF9BW125, 4/5CR

Message count: 200
Node count: 1

Messages per node

Number of messages in list aboveNodes
200

Statistics per gateway

GatewayNumber of messagesNumber of nodesNodes
1321
831
821 (1.925km)
681
301

Filter by dataset